Time;durP1;ratioP1;P1;durP2;ratioP2;P2;SDS_P1;SDS_P2;PMS_P1;PMS_P2;Temp;Humidity;BMP_temperature;BMP_pressure;BME280_temperature;BME280_humidity;BME280_pressure;Samples;Min_cycle;Max_cycle;Signal;HPM_P1;HPM_P2
2023/12/31 00:00:59;;;;;;;10.10;6.80;;;;;;;2.89;100.00;99964.77;109004;1255;59701;-55
2023/12/31 00:03:27;;;;;;;9.80;6.70;;;;;;;2.87;100.00;99961.15;109025;1255;59184;-55
2023/12/31 00:05:54;;;;;;;10.70;7.20;;;;;;;2.90;100.00;99960.89;109029;1255;74616;-55
2023/12/31 00:08:22;;;;;;;10.70;7.20;;;;;;;2.97;100.00;99957.18;108967;1258;65631;-55
2023/12/31 00:10:49;;;;;;;12.00;7.30;;;;;;;3.01;100.00;99953.54;109061;1256;72734;-55
2023/12/31 00:13:17;;;;;;;8.50;6.10;;;;;;;3.03;100.00;99941.34;109045;1255;59302;-55
2023/12/31 00:15:45;;;;;;;10.90;6.80;;;;;;;3.06;100.00;99936.28;109019;1256;59063;-55
2023/12/31 00:18:12;;;;;;;9.90;6.40;;;;;;;3.09;100.00;99932.00;109173;1255;74655;-57
2023/12/31 00:20:40;;;;;;;10.10;6.10;;;;;;;3.13;100.00;99926.84;109063;1256;67106;-55
2023/12/31 00:23:11;;;;;;;8.20;5.60;;;;;;;3.18;100.00;99918.63;109062;1256;72664;-55
2023/12/31 00:25:40;;;;;;;8.40;5.60;;;;;;;3.24;100.00;99914.83;109172;1255;60159;-55
2023/12/31 00:28:07;;;;;;;8.40;5.70;;;;;;;3.29;100.00;99918.98;109171;1255;60312;-57
2023/12/31 00:30:35;;;;;;;9.80;6.80;;;;;;;3.33;100.00;99916.95;109029;1256;74060;-55
2023/12/31 00:33:03;;;;;;;11.40;6.10;;;;;;;3.37;100.00;99908.78;109008;1255;64677;-55
2023/12/31 00:35:31;;;;;;;9.90;6.70;;;;;;;3.38;100.00;99910.86;109245;1254;71407;-55
2023/12/31 00:37:58;;;;;;;9.50;6.30;;;;;;;3.40;100.00;99918.73;109033;1255;59074;-55
2023/12/31 00:40:28;;;;;;;9.60;5.80;;;;;;;3.43;100.00;99927.95;109066;1255;59514;-55
2023/12/31 00:42:56;;;;;;;9.70;6.30;;;;;;;3.45;100.00;99929.36;109070;1256;74804;-55
2023/12/31 00:45:23;;;;;;;8.80;6.40;;;;;;;3.48;100.00;99929.61;109030;1255;67202;-55
2023/12/31 00:47:51;;;;;;;9.30;6.20;;;;;;;3.51;100.00;99941.67;109016;1256;72741;-56
2023/12/31 00:50:19;;;;;;;9.50;6.60;;;;;;;3.55;100.00;99942.15;108967;1256;59697;-56
2023/12/31 00:52:46;;;;;;;9.30;5.70;;;;;;;3.58;100.00;99938.39;109185;1256;60110;-55
2023/12/31 00:55:14;;;;;;;8.50;5.90;;;;;;;3.63;100.00;99936.04;109046;1255;74812;-55
2023/12/31 00:57:42;;;;;;;8.80;6.30;;;;;;;3.65;100.00;99944.90;109057;1255;66127;-55
2023/12/31 01:00:10;;;;;;;9.90;6.50;;;;;;;3.68;100.00;99942.33;109042;1256;71882;-55
2023/12/31 01:02:38;;;;;;;9.00;6.30;;;;;;;3.71;100.00;99942.66;109146;1256;60936;-55
2023/12/31 01:05:06;;;;;;;9.20;5.80;;;;;;;3.71;100.00;99943.75;109114;1255;60079;-55
2023/12/31 01:07:33;;;;;;;8.80;6.50;;;;;;;3.71;100.00;99948.84;109184;1255;74760;-55
2023/12/31 01:10:01;;;;;;;8.90;5.60;;;;;;;3.72;100.00;99948.81;109019;1255;67194;-55
2023/12/31 01:12:29;;;;;;;11.00;6.00;;;;;;;3.72;100.00;99950.45;109001;1256;72436;-55
2023/12/31 01:14:56;;;;;;;9.70;6.50;;;;;;;3.73;100.00;99952.84;109036;1255;59822;-54
2023/12/31 01:17:24;;;;;;;10.00;6.30;;;;;;;3.73;100.00;99950.00;109195;1256;58922;-55
2023/12/31 01:19:52;;;;;;;9.10;6.40;;;;;;;3.76;100.00;99948.56;109210;1255;73679;-55
2023/12/31 01:22:20;;;;;;;9.20;6.50;;;;;;;3.78;100.00;99944.20;109065;1255;67072;-57
2023/12/31 01:24:48;;;;;;;9.90;6.60;;;;;;;3.79;100.00;99945.32;109104;1255;70868;-55
2023/12/31 01:27:16;;;;;;;10.50;6.80;;;;;;;3.79;100.00;99945.19;109162;1255;61015;-55
2023/12/31 01:29:43;;;;;;;9.60;6.40;;;;;;;3.79;100.00;99948.44;109065;1255;60155;-55
2023/12/31 01:32:11;;;;;;;9.90;6.90;;;;;;;3.80;100.00;99945.23;109064;1259;74680;-55
2023/12/31 01:34:39;;;;;;;9.20;7.20;;;;;;;3.81;100.00;99938.83;109167;1255;65949;-55
2023/12/31 01:37:06;;;;;;;9.80;7.20;;;;;;;3.81;100.00;99933.00;109056;1255;71463;-55
2023/12/31 01:39:34;;;;;;;9.10;6.30;;;;;;;3.79;100.00;99931.09;109168;1255;58965;-55
2023/12/31 01:42:02;;;;;;;10.70;7.10;;;;;;;3.78;100.00;99931.54;109080;1255;59579;-55
2023/12/31 01:44:29;;;;;;;8.90;6.80;;;;;;;3.76;100.00;99929.50;109055;1256;75510;-55
2023/12/31 01:46:57;;;;;;;8.80;6.40;;;;;;;3.75;100.00;99923.70;109097;1255;65682;-54
2023/12/31 01:49:26;;;;;;;10.10;6.90;;;;;;;3.75;100.00;99922.36;109037;1255;72777;-55
2023/12/31 01:51:54;;;;;;;8.50;6.50;;;;;;;3.74;100.00;99926.92;109035;1255;60171;-56
2023/12/31 01:54:22;;;;;;;8.80;6.60;;;;;;;3.72;100.00;99924.52;109069;1255;59174;-54
2023/12/31 01:56:50;;;;;;;11.30;7.30;;;;;;;3.72;100.00;99927.79;109079;1255;74717;-55
2023/12/31 01:59:17;;;;;;;9.90;6.90;;;;;;;3.73;100.00;99931.02;108980;1255;65266;-55
2023/12/31 02:01:45;;;;;;;11.00;7.80;;;;;;;3.74;100.00;99930.70;108944;1256;72751;-55
2023/12/31 02:04:22;;;;;;;9.70;6.80;;;;;;;3.75;100.00;99926.16;108971;1255;59694;-55
2023/12/31 02:06:50;;;;;;;9.80;7.10;;;;;;;3.76;100.00;99929.33;109052;1255;59174;-55
2023/12/31 02:09:17;;;;;;;13.10;7.70;;;;;;;3.77;100.00;99927.39;109098;1255;72550;-57
2023/12/31 02:11:45;;;;;;;12.40;7.80;;;;;;;3.76;100.00;99930.71;109222;1255;65946;-55
2023/12/31 02:14:14;;;;;;;10.30;7.70;;;;;;;3.74;100.00;99931.92;109033;1255;71638;-55
2023/12/31 02:16:41;;;;;;;9.90;7.40;;;;;;;3.76;100.00;99928.48;109169;1255;61167;-55
2023/12/31 02:19:09;;;;;;;10.00;6.90;;;;;;;3.77;100.00;99934.05;109063;1256;59008;-55
2023/12/31 02:21:37;;;;;;;10.80;7.40;;;;;;;3.79;100.00;99936.40;109015;1256;73452;-56
2023/12/31 02:24:05;;;;;;;10.60;7.30;;;;;;;3.80;100.00;99943.70;109081;1256;64810;-55
2023/12/31 02:26:32;;;;;;;11.10;7.70;;;;;;;3.81;100.00;99946.66;109081;1255;71935;-55
2023/12/31 02:29:00;;;;;;;10.60;7.80;;;;;;;3.84;100.00;99946.43;108896;1255;59569;-55
2023/12/31 02:31:28;;;;;;;9.80;7.60;;;;;;;3.86;100.00;99944.19;109179;1255;60558;-55
2023/12/31 02:33:56;;;;;;;11.40;7.40;;;;;;;3.88;100.00;99946.50;109020;1255;73481;-56
2023/12/31 02:36:23;;;;;;;12.90;9.30;;;;;;;3.90;100.00;99948.24;109031;1255;65682;-55
2023/12/31 02:38:51;;;;;;;12.00;8.00;;;;;;;3.91;100.00;99946.62;109158;1255;72728;-55
2023/12/31 02:41:18;;;;;;;11.80;8.80;;;;;;;3.93;100.00;99947.15;109057;1256;60858;-55
2023/12/31 02:43:46;;;;;;;11.40;8.20;;;;;;;3.93;100.00;99943.84;109079;1256;58958;-55
2023/12/31 02:46:14;;;;;;;12.60;8.60;;;;;;;3.93;100.00;99942.64;109119;1256;74662;-55
2023/12/31 02:48:42;;;;;;;12.00;8.20;;;;;;;3.94;100.00;99946.70;109205;1255;65727;-55
2023/12/31 02:51:10;;;;;;;12.40;9.10;;;;;;;3.94;100.00;99944.95;109052;1255;72817;-55
2023/12/31 02:53:38;;;;;;;12.00;8.50;;;;;;;3.95;100.00;99949.15;109158;1255;59194;-55
2023/12/31 02:56:05;;;;;;;12.80;9.20;;;;;;;3.95;100.00;99952.54;109052;1255;59098;-56
2023/12/31 02:58:33;;;;;;;13.80;10.20;;;;;;;3.96;100.00;99959.52;109119;1256;73716;-55
2023/12/31 03:01:01;;;;;;;14.50;9.60;;;;;;;3.98;100.00;99967.27;109070;1256;176196;-55
2023/12/31 03:03:28;;;;;;;12.90;9.70;;;;;;;4.00;100.00;99974.23;109285;1255;72744;-54
2023/12/31 03:05:56;;;;;;;13.80;9.20;;;;;;;4.03;100.00;99975.71;109031;1256;60063;-55
2023/12/31 03:08:24;;;;;;;12.10;8.90;;;;;;;4.03;100.00;99974.95;109023;1255;60127;-55
2023/12/31 03:10:51;;;;;;;11.40;8.80;;;;;;;4.04;100.00;99974.92;109092;1255;74647;-55
2023/12/31 03:13:19;;;;;;;10.10;7.90;;;;;;;4.03;100.00;99969.89;109175;1256;67144;-54
2023/12/31 03:15:47;;;;;;;11.80;8.60;;;;;;;4.01;100.00;99962.98;109071;1255;72755;-55
2023/12/31 03:18:14;;;;;;;13.50;10.20;;;;;;;3.99;100.00;99963.37;109109;1255;61799;-55
2023/12/31 03:20:42;;;;;;;12.20;9.10;;;;;;;3.97;100.00;99963.38;109071;1256;60418;-55
2023/12/31 03:23:10;;;;;;;13.90;10.00;;;;;;;3.97;100.00;99968.49;108963;1256;74783;-55
2023/12/31 03:25:38;;;;;;;14.60;11.00;;;;;;;3.95;100.00;99971.16;109105;1255;67062;-55
2023/12/31 03:28:06;;;;;;;13.90;9.90;;;;;;;3.93;100.00;99976.52;109240;1254;72718;-54
2023/12/31 03:30:33;;;;;;;14.30;9.70;;;;;;;3.93;100.00;99974.55;109073;1255;60494;-55
2023/12/31 03:33:03;;;;;;;13.80;9.40;;;;;;;3.93;100.00;99974.29;109034;1256;60069;-56
2023/12/31 03:35:32;;;;;;;13.70;10.10;;;;;;;3.93;100.00;99973.10;109083;1255;73473;-55
2023/12/31 03:37:59;;;;;;;14.10;9.90;;;;;;;3.91;100.00;99970.48;109087;1255;66139;-55
2023/12/31 03:40:27;;;;;;;15.50;10.80;;;;;;;3.91;100.00;99972.05;109216;1254;71347;-56
2023/12/31 03:42:55;;;;;;;16.30;11.20;;;;;;;3.91;100.00;99974.93;109170;1255;61468;-55
2023/12/31 03:45:22;;;;;;;15.70;11.60;;;;;;;3.93;100.00;99978.55;109036;1256;60102;-55
2023/12/31 03:47:50;;;;;;;16.60;11.10;;;;;;;3.94;100.00;99977.25;109169;1256;74839;-55
2023/12/31 03:50:18;;;;;;;17.50;11.70;;;;;;;3.95;100.00;99978.41;109128;1255;65820;-55
2023/12/31 03:52:45;;;;;;;17.40;11.40;;;;;;;3.94;100.00;99977.73;109028;1256;72780;-56
2023/12/31 03:55:13;;;;;;;16.00;11.50;;;;;;;3.95;100.00;99979.58;109025;1256;61053;-55
2023/12/31 03:57:41;;;;;;;17.20;10.90;;;;;;;3.95;100.00;99985.13;109064;1255;60135;-55
2023/12/31 04:00:09;;;;;;;17.30;12.30;;;;;;;3.95;100.00;99983.05;109223;1255;74721;-55
2023/12/31 04:02:36;;;;;;;19.20;13.10;;;;;;;3.95;100.00;99987.80;109044;1255;66959;-56
2023/12/31 04:05:04;;;;;;;15.40;10.90;;;;;;;3.93;100.00;99990.06;109108;1256;72096;-55
2023/12/31 04:07:32;;;;;;;17.60;12.00;;;;;;;3.90;100.00;99985.85;109049;1255;59647;-55
2023/12/31 04:10:00;;;;;;;18.60;12.10;;;;;;;3.89;100.00;99992.34;109242;1255;59042;-55
2023/12/31 04:12:28;;;;;;;18.60;12.60;;;;;;;3.88;100.00;99991.37;109080;1256;74760;-55
2023/12/31 04:14:55;;;;;;;19.30;12.70;;;;;;;3.87;100.00;99994.96;109197;1254;66120;-55
2023/12/31 04:17:24;;;;;;;18.90;12.90;;;;;;;3.85;100.00;99996.17;109259;1256;71448;-55
2023/12/31 04:19:51;;;;;;;16.80;11.70;;;;;;;3.83;100.00;99999.61;108976;1255;60926;-55
2023/12/31 04:22:23;;;;;;;16.30;11.90;;;;;;;3.81;100.00;100002.73;109089;1255;60111;-55
2023/12/31 04:24:51;;;;;;;20.30;12.50;;;;;;;3.81;100.00;100003.05;109057;1255;73434;-56
2023/12/31 04:27:19;;;;;;;16.00;11.90;;;;;;;3.80;100.00;100007.77;109087;1255;65759;-55
2023/12/31 04:29:47;;;;;;;18.10;12.70;;;;;;;3.81;100.00;100009.73;108959;1255;72765;-55
2023/12/31 04:32:16;;;;;;;18.30;11.80;;;;;;;3.82;100.00;100006.93;109020;1255;59747;-55
2023/12/31 04:34:44;;;;;;;17.10;12.30;;;;;;;3.82;100.00;100013.80;109061;1255;59313;-55
2023/12/31 04:37:12;;;;;;;19.10;12.90;;;;;;;3.82;100.00;100011.92;108905;1256;74737;-55
2023/12/31 04:39:40;;;;;;;19.20;12.60;;;;;;;3.82;100.00;100017.95;109264;1255;66967;-55
2023/12/31 04:42:08;;;;;;;19.10;12.90;;;;;;;3.80;100.00;100019.16;109089;1256;72841;-55
2023/12/31 04:44:35;;;;;;;18.10;11.70;;;;;;;3.80;100.00;100017.78;109071;1256;59565;-55
2023/12/31 04:47:03;;;;;;;19.70;13.50;;;;;;;3.81;100.00;100017.70;109065;1255;58971;-57
2023/12/31 04:49:30;;;;;;;17.50;12.30;;;;;;;3.79;100.00;100015.27;109074;1256;73759;-55
2023/12/31 04:51:58;;;;;;;18.40;12.90;;;;;;;3.78;100.00;100022.27;109150;1256;67611;-55
2023/12/31 04:54:26;;;;;;;19.10;13.00;;;;;;;3.78;100.00;100026.90;109148;1255;73140;-55
2023/12/31 04:56:53;;;;;;;20.50;12.80;;;;;;;3.78;100.00;100031.41;109073;1256;59961;-55
2023/12/31 04:59:21;;;;;;;19.60;13.10;;;;;;;3.77;100.00;100030.99;109115;1255;60101;-55
2023/12/31 05:01:49;;;;;;;16.70;11.70;;;;;;;3.78;100.00;100034.13;109058;1256;74734;-55
2023/12/31 05:04:17;;;;;;;21.80;14.60;;;;;;;3.80;100.00;100032.55;109162;1256;66979;-55
2023/12/31 05:06:45;;;;;;;18.80;12.40;;;;;;;3.82;100.00;100030.95;109061;1255;71507;-55
2023/12/31 05:09:13;;;;;;;22.50;14.50;;;;;;;3.83;100.00;100031.41;109056;1256;60963;-56
2023/12/31 05:11:41;;;;;;;20.90;14.80;;;;;;;3.83;100.00;100035.38;109114;1256;59365;-55
2023/12/31 05:14:09;;;;;;;21.40;13.40;;;;;;;3.84;100.00;100036.84;109123;1255;73579;-55
2023/12/31 05:16:36;;;;;;;21.30;14.60;;;;;;;3.86;100.00;100038.67;109067;1257;66117;-55
2023/12/31 05:19:04;;;;;;;17.70;12.10;;;;;;;3.88;100.00;100029.08;109159;1256;72748;-55
2023/12/31 05:21:31;;;;;;;20.00;12.90;;;;;;;3.88;100.00;100021.48;108984;1255;59371;-55
2023/12/31 05:24:00;;;;;;;18.60;12.20;;;;;;;3.87;100.00;100025.88;109060;1256;60115;-55
2023/12/31 05:26:27;;;;;;;19.50;12.60;;;;;;;3.85;100.00;100022.60;109123;1257;74769;-55
2023/12/31 05:28:55;;;;;;;17.30;11.70;;;;;;;3.84;100.00;100019.08;109222;1256;66982;-55
2023/12/31 05:31:22;;;;;;;19.80;13.60;;;;;;;3.83;100.00;100022.81;109041;1255;72768;-55
2023/12/31 05:33:50;;;;;;;19.10;12.90;;;;;;;3.82;100.00;100026.34;109236;1256;60180;-56
2023/12/31 05:36:18;;;;;;;18.50;12.10;;;;;;;3.80;100.00;100028.26;109071;1255;58999;-55
2023/12/31 05:38:45;;;;;;;21.10;14.50;;;;;;;3.79;100.00;100034.02;109046;1256;74777;-55
2023/12/31 05:41:13;;;;;;;19.60;13.30;;;;;;;3.78;100.00;100037.41;109072;1256;66947;-57
2023/12/31 05:43:42;;;;;;;17.40;12.10;;;;;;;3.75;100.00;100036.81;109049;1256;72706;-55
2023/12/31 05:46:09;;;;;;;21.20;13.50;;;;;;;3.74;100.00;100039.52;109185;1255;59495;-55
2023/12/31 05:48:39;;;;;;;17.90;12.20;;;;;;;3.74;100.00;100042.89;109104;1256;60099;-55
2023/12/31 05:51:07;;;;;;;17.60;12.40;;;;;;;3.74;100.00;100041.90;109156;1256;73565;-56
2023/12/31 05:53:34;;;;;;;16.80;11.50;;;;;;;3.73;100.00;100042.99;109051;1258;67094;-57
2023/12/31 05:56:02;;;;;;;17.40;12.40;;;;;;;3.72;100.00;100043.85;109078;1255;71733;-55
2023/12/31 05:58:30;;;;;;;17.80;12.20;;;;;;;3.69;100.00;100049.05;109031;1256;59692;-55
2023/12/31 06:00:58;;;;;;;16.90;11.50;;;;;;;3.65;100.00;100054.02;109131;1255;59137;-55
2023/12/31 06:03:26;;;;;;;15.00;11.00;;;;;;;3.63;100.00;100054.90;109078;1256;74733;-55
2023/12/31 06:05:53;;;;;;;18.20;11.80;;;;;;;3.62;100.00;100056.02;109037;1255;66065;-57
2023/12/31 06:08:21;;;;;;;17.70;12.50;;;;;;;3.61;100.00;100059.20;109100;1256;71776;-55
2023/12/31 06:10:49;;;;;;;17.50;11.60;;;;;;;3.61;100.00;100057.52;109080;1256;59742;-55
2023/12/31 06:13:16;;;;;;;17.30;11.40;;;;;;;3.59;100.00;100053.23;109041;1256;59038;-55
2023/12/31 06:15:44;;;;;;;16.80;11.70;;;;;;;3.56;100.00;100054.52;109108;1256;74753;-55
2023/12/31 06:18:12;;;;;;;18.60;12.80;;;;;;;3.59;100.00;100061.01;109041;1255;66946;-57
2023/12/31 06:20:39;;;;;;;19.10;13.20;;;;;;;3.60;100.00;100063.25;109065;1255;72710;-55
2023/12/31 06:23:07;;;;;;;16.40;11.80;;;;;;;3.63;100.00;100063.02;109056;1255;60834;-55
2023/12/31 06:25:35;;;;;;;17.20;12.20;;;;;;;3.66;100.00;100062.77;109097;1255;60093;-56
2023/12/31 06:28:02;;;;;;;17.30;12.30;;;;;;;3.69;100.00;100064.70;109107;1256;74758;-57
2023/12/31 06:30:30;;;;;;;17.60;12.40;;;;;;;3.70;100.00;100067.55;109142;1256;67467;-52
2023/12/31 06:32:58;;;;;;;17.80;12.30;;;;;;;3.72;100.00;100071.17;109150;1255;72761;-53
2023/12/31 06:35:25;;;;;;;17.90;12.70;;;;;;;3.74;100.00;100062.86;109021;1256;58921;-53
2023/12/31 06:37:53;;;;;;;20.10;13.40;;;;;;;3.77;100.00;100070.50;109112;1256;59365;-52
2023/12/31 06:40:21;;;;;;;19.60;13.70;;;;;;;3.79;100.00;100069.83;109123;1256;74757;-54
2023/12/31 06:42:48;;;;;;;19.90;12.80;;;;;;;3.81;100.00;100074.02;109065;1256;66189;-55
2023/12/31 06:45:16;;;;;;;20.00;14.30;;;;;;;3.83;100.00;100076.98;109069;1255;72739;-55
2023/12/31 06:47:44;;;;;;;21.00;13.90;;;;;;;3.88;100.00;100083.22;109040;1256;58954;-55
2023/12/31 06:50:11;;;;;;;20.00;13.60;;;;;;;3.92;100.00;100080.73;109145;1256;60093;-55
2023/12/31 06:52:39;;;;;;;17.30;12.70;;;;;;;3.96;100.00;100080.41;109065;1256;74760;-55
2023/12/31 06:55:10;;;;;;;18.50;12.60;;;;;;;3.97;100.00;100077.92;109105;1255;65976;-55
2023/12/31 06:57:38;;;;;;;18.20;12.10;;;;;;;3.97;100.00;100082.87;109111;1256;72945;-55
2023/12/31 07:00:07;;;;;;;19.30;13.50;;;;;;;4.00;100.00;100087.23;109100;1256;60162;-55
2023/12/31 07:02:37;;;;;;;20.00;13.50;;;;;;;4.06;100.00;100088.06;109014;1256;60075;-57
2023/12/31 07:05:05;;;;;;;17.70;12.40;;;;;;;4.13;100.00;100089.92;109043;1256;74676;-55
2023/12/31 07:07:33;;;;;;;17.80;12.70;;;;;;;4.20;100.00;100088.92;109133;1255;65718;-55
2023/12/31 07:10:00;;;;;;;17.50;12.20;;;;;;;4.26;100.00;100092.20;109242;1255;71516;-55
2023/12/31 07:12:28;;;;;;;17.90;11.60;;;;;;;4.27;100.00;100090.15;109046;1255;61958;-57
2023/12/31 07:14:55;;;;;;;19.40;13.70;;;;;;;4.27;100.00;100094.80;109101;1259;60078;-55
2023/12/31 07:17:23;;;;;;;18.40;12.40;;;;;;;4.26;100.00;100093.85;109142;1255;72827;-55
2023/12/31 07:19:58;;;;;;;19.70;13.20;;;;;;;4.24;100.00;100098.02;109140;1255;66969;-56
2023/12/31 07:22:26;;;;;;;16.60;12.10;;;;;;;4.22;100.00;100099.42;109009;1256;70671;-53
2023/12/31 07:24:53;;;;;;;17.20;11.50;;;;;;;4.22;100.00;100103.27;109061;1256;59646;-52
2023/12/31 07:27:21;;;;;;;18.00;12.70;;;;;;;4.22;100.00;100105.64;109077;1256;60117;-52
2023/12/31 07:29:48;;;;;;;18.30;12.30;;;;;;;4.23;100.00;100108.59;109107;1256;73758;-52
2023/12/31 07:32:16;;;;;;;19.60;13.60;;;;;;;4.29;100.00;100111.81;109073;1255;65898;-57
2023/12/31 07:34:44;;;;;;;17.20;11.80;;;;;;;4.39;100.00;100114.42;109053;1256;72694;-55
2023/12/31 07:37:11;;;;;;;17.50;12.30;;;;;;;4.54;100.00;100115.95;109109;1255;60132;-55
2023/12/31 07:39:42;;;;;;;17.10;12.50;;;;;;;4.67;100.00;100113.56;109215;1255;60121;-55
2023/12/31 07:42:10;;;;;;;17.10;12.10;;;;;;;4.76;100.00;100116.15;109071;1256;73474;-55
2023/12/31 07:44:37;;;;;;;19.60;11.70;;;;;;;4.81;100.00;100118.39;108992;1256;66945;-56
2023/12/31 07:47:05;;;;;;;18.70;12.40;;;;;;;4.83;100.00;100119.70;109037;1256;72669;-55
2023/12/31 07:49:33;;;;;;;19.00;13.10;;;;;;;4.87;100.00;100119.47;108992;1260;60607;-55
2023/12/31 07:52:01;;;;;;;20.70;14.00;;;;;;;4.91;100.00;100123.96;109089;1256;59222;-55
2023/12/31 07:54:28;;;;;;;23.30;15.00;;;;;;;4.90;100.00;100126.93;109061;1256;74758;-55
2023/12/31 07:56:56;;;;;;;19.90;13.20;;;;;;;4.84;100.00;100123.36;109188;1254;67111;-56
2023/12/31 07:59:23;;;;;;;19.20;13.70;;;;;;;4.82;100.00;100123.05;109056;1255;72771;-52
2023/12/31 08:01:52;;;;;;;19.70;13.10;;;;;;;4.81;100.00;100119.01;109227;1254;62252;-53
2023/12/31 08:04:20;;;;;;;20.70;13.50;;;;;;;4.81;100.00;100118.90;109067;1255;60061;-55
2023/12/31 08:06:48;;;;;;;17.50;12.40;;;;;;;4.81;100.00;100118.71;109058;1255;74781;-57
2023/12/31 08:09:16;;;;;;;16.80;11.90;;;;;;;4.87;100.00;100124.97;109093;1256;69113;-55
2023/12/31 08:11:43;;;;;;;19.00;13.30;;;;;;;4.99;100.00;100122.06;109045;1255;72737;-55
2023/12/31 08:14:11;;;;;;;19.10;13.10;;;;;;;5.14;100.00;100123.23;109039;1256;59037;-55
2023/12/31 08:16:38;;;;;;;17.90;12.90;;;;;;;5.30;100.00;100117.16;109034;1257;60066;-56
2023/12/31 08:19:06;;;;;;;15.80;11.50;;;;;;;5.48;100.00;100115.04;109037;1260;73766;-55
2023/12/31 08:21:34;;;;;;;14.40;10.50;;;;;;;5.64;100.00;100117.67;109113;1256;67108;-56
2023/12/31 08:24:02;;;;;;;16.00;11.60;;;;;;;5.83;100.00;100114.46;109055;1256;72484;-55
2023/12/31 08:26:29;;;;;;;16.20;11.10;;;;;;;5.97;100.00;100114.20;109036;1257;60167;-55
2023/12/31 08:28:59;;;;;;;14.70;10.30;;;;;;;6.07;100.00;100109.54;109112;1256;60105;-56
2023/12/31 08:31:27;;;;;;;14.80;11.30;;;;;;;6.12;100.00;100105.98;109010;1260;75220;-55
2023/12/31 08:33:54;;;;;;;18.70;12.70;;;;;;;6.15;100.00;100102.95;109133;1255;64914;-55
2023/12/31 08:36:22;;;;;;;15.90;11.70;;;;;;;6.19;100.00;100098.77;109072;1256;72710;-55
2023/12/31 08:38:51;;;;;;;15.20;10.70;;;;;;;6.24;100.00;100093.02;109010;1258;60424;-55
2023/12/31 08:41:19;;;;;;;14.50;10.50;;;;;;;6.28;100.00;100091.34;109025;1255;58941;-55
2023/12/31 08:43:48;;;;;;;14.10;10.30;;;;;;;6.37;100.00;100084.53;109060;1257;74631;-56
2023/12/31 08:46:15;;;;;;;14.20;9.80;;;;;;;6.56;100.00;100084.16;108959;1256;67081;-53
2023/12/31 08:48:43;;;;;;;16.40;11.10;;;;;;;6.79;100.00;100082.02;109266;1256;71547;-53
2023/12/31 08:51:11;;;;;;;13.30;10.10;;;;;;;7.02;100.00;100075.14;108990;1260;62240;-53
2023/12/31 08:53:38;;;;;;;12.20;9.60;;;;;;;7.20;100.00;100069.20;109117;1255;58951;-53
2023/12/31 08:56:06;;;;;;;12.70;9.90;;;;;;;7.30;100.00;100063.61;109048;1256;74821;-53
2023/12/31 08:58:34;;;;;;;14.70;10.40;;;;;;;7.31;100.00;100064.73;109106;1256;66951;-53
2023/12/31 09:01:02;;;;;;;13.20;9.50;;;;;;;7.25;100.00;100058.24;109068;1256;72716;-54
2023/12/31 09:03:30;;;;;;;13.10;10.00;;;;;;;7.21;100.00;100058.61;109233;1254;60975;-53
2023/12/31 09:05:58;;;;;;;15.10;10.70;;;;;;;7.14;100.00;100056.52;108923;1255;60089;-53
2023/12/31 09:08:26;;;;;;;15.50;9.90;;;;;;;7.07;100.00;100053.46;109061;1257;74778;-53
2023/12/31 09:10:55;;;;;;;12.60;10.30;;;;;;;7.01;100.00;100058.42;109131;1256;65666;-53
2023/12/31 09:13:23;;;;;;;14.50;11.10;;;;;;;6.98;100.00;100050.10;109038;1259;72768;-53
2023/12/31 09:15:50;;;;;;;18.00;12.60;;;;;;;6.98;100.00;100048.94;109045;1257;61769;-53
2023/12/31 09:18:18;;;;;;;17.90;13.80;;;;;;;7.01;100.00;100047.34;109143;1257;58873;-53
2023/12/31 09:20:46;;;;;;;17.50;11.90;;;;;;;7.02;100.00;100047.57;109060;1255;74752;-55
2023/12/31 09:23:14;;;;;;;13.70;10.40;;;;;;;7.02;100.00;100042.81;109075;1259;66992;-54
2023/12/31 09:25:41;;;;;;;14.70;9.60;;;;;;;7.01;100.00;100035.52;109054;1256;72673;-53
2023/12/31 09:28:09;;;;;;;12.30;9.20;;;;;;;6.99;100.00;100037.40;109100;1256;59025;-53
2023/12/31 09:30:37;;;;;;;12.60;9.20;;;;;;;6.99;100.00;100033.45;109149;1258;58926;-53
2023/12/31 09:33:05;;;;;;;13.60;9.20;;;;;;;7.00;100.00;100028.88;109081;1257;72885;-55
2023/12/31 09:35:33;;;;;;;13.10;8.90;;;;;;;6.99;100.00;100032.05;109066;1256;66961;-53
2023/12/31 09:38:00;;;;;;;12.60;8.70;;;;;;;7.01;100.00;100027.88;109082;1255;71764;-53
2023/12/31 09:40:28;;;;;;;11.90;8.70;;;;;;;7.04;100.00;100025.30;109054;1255;60166;-54
2023/12/31 09:42:56;;;;;;;11.50;8.10;;;;;;;7.05;100.00;100026.89;109115;1258;59342;-53
2023/12/31 09:45:24;;;;;;;11.30;8.20;;;;;;;7.11;100.00;100023.74;109053;1259;75099;-54
2023/12/31 09:47:53;;;;;;;10.60;7.70;;;;;;;7.09;100.00;100017.65;109225;1259;66947;-53
2023/12/31 09:50:22;;;;;;;11.90;8.30;;;;;;;7.03;100.00;100017.48;109023;1255;72757;-53
2023/12/31 09:52:50;;;;;;;12.00;8.20;;;;;;;6.96;100.00;100013.54;109058;1256;59412;-53
2023/12/31 09:55:18;;;;;;;11.40;7.20;;;;;;;6.89;100.00;100008.28;109122;1256;60583;-54
2023/12/31 09:57:47;;;;;;;11.40;7.40;;;;;;;6.81;100.00;100004.48;109033;1256;74493;-53
2023/12/31 10:00:14;;;;;;;10.40;7.10;;;;;;;6.76;100.00;100007.48;109174;1255;67668;-53
2023/12/31 10:02:43;;;;;;;10.70;7.90;;;;;;;6.72;100.00;100001.79;109000;1258;72768;-53
2023/12/31 10:05:11;;;;;;;12.70;7.70;;;;;;;6.71;100.00;99996.94;109069;1256;59383;-53
2023/12/31 10:07:39;;;;;;;9.50;6.80;;;;;;;6.69;100.00;99998.72;108975;1257;59085;-53
2023/12/31 10:10:07;;;;;;;10.00;7.00;;;;;;;6.69;100.00;99997.81;109063;1256;74691;-53
2023/12/31 10:12:35;;;;;;;10.10;7.00;;;;;;;6.67;100.00;99996.45;109053;1256;67134;-53
2023/12/31 10:15:02;;;;;;;10.80;7.00;;;;;;;6.70;100.00;99995.50;109074;1256;72731;-53
2023/12/31 10:17:31;;;;;;;11.20;6.60;;;;;;;6.71;100.00;99993.52;109118;1256;59650;-52
2023/12/31 10:19:59;;;;;;;9.50;5.90;;;;;;;6.74;100.00;99989.96;109003;1256;58899;-53
2023/12/31 10:22:30;;;;;;;8.50;6.00;;;;;;;6.82;100.00;99988.95;109087;1257;74712;-53
2023/12/31 10:25:14;;;;;;;7.50;5.60;;;;;;;6.84;100.00;99987.03;109137;1256;67056;-53
2023/12/31 10:27:48;;;;;;;10.20;5.90;;;;;;;6.82;100.00;99986.88;109042;1257;72799;-55
2023/12/31 10:30:17;;;;;;;9.40;6.30;;;;;;;6.82;100.00;99987.46;109101;1257;59943;-53
2023/12/31 10:32:45;;;;;;;7.80;5.10;;;;;;;6.82;100.00;99986.48;108996;1255;59436;-53
2023/12/31 10:35:12;;;;;;;11.80;5.30;;;;;;;6.85;100.00;99989.36;109047;1257;73275;-53
2023/12/31 10:37:40;;;;;;;8.20;5.30;;;;;;;6.87;100.00;99988.77;109015;1256;66800;-55
2023/12/31 10:40:20;;;;;;;7.30;4.30;;;;;;;6.88;100.00;99988.20;109224;1254;73247;-53
2023/12/31 10:42:49;;;;;;;6.30;4.30;;;;;;;6.88;100.00;99987.71;109026;1257;59650;-55
2023/12/31 10:45:20;;;;;;;6.30;4.30;;;;;;;6.91;100.00;99986.45;109001;1256;60085;-53
2023/12/31 10:47:53;;;;;;;9.80;4.80;;;;;;;7.02;100.00;99988.02;108999;1257;74713;-54
2023/12/31 10:50:23;;;;;;;7.30;4.20;;;;;;;7.05;100.00;99985.42;109144;1257;65629;-53
2023/12/31 10:52:53;;;;;;;6.50;3.60;;;;;;;7.05;100.00;99984.59;109100;1257;72738;-53
2023/12/31 10:55:21;;;;;;;6.30;3.50;;;;;;;7.04;100.00;99983.10;109114;1256;60989;-53
2023/12/31 10:57:50;;;;;;;5.70;3.70;;;;;;;7.03;100.00;99981.15;109057;1260;59072;-53
2023/12/31 11:00:19;;;;;;;5.80;4.00;;;;;;;7.08;100.00;99986.00;109172;1256;74744;-53
2023/12/31 11:02:47;;;;;;;7.40;4.30;;;;;;;7.08;100.00;99988.80;109089;1256;64697;-53
2023/12/31 11:05:15;;;;;;;6.80;4.20;;;;;;;7.10;100.00;99992.22;109063;1256;72765;-53
2023/12/31 11:07:43;;;;;;;6.10;3.80;;;;;;;7.15;100.00;99993.41;108925;1257;60936;-55
2023/12/31 11:10:10;;;;;;;9.50;4.80;;;;;;;7.23;100.00;99994.82;109036;1256;58959;-54
2023/12/31 11:12:38;;;;;;;6.60;3.80;;;;;;;7.33;100.00;99995.22;109160;1257;74741;-53
2023/12/31 11:15:13;;;;;;;6.10;3.50;;;;;;;7.39;100.00;99996.06;109070;1255;65668;-54